sensor_id;sensor_type;location;lat;lon;timestamp;P1;durP1;ratioP1;P2;durP2;ratioP2
51883;SDS011;37915;53.254;6.598;2022-11-14T00:00:08;24.17;;;12.38;;
51883;SDS011;37915;53.254;6.598;2022-11-14T00:02:36;19.67;;;11.63;;
51883;SDS011;37915;53.254;6.598;2022-11-14T00:05:02;25.40;;;13.85;;
51883;SDS011;37915;53.254;6.598;2022-11-14T00:07:29;23.27;;;12.57;;
51883;SDS011;37915;53.254;6.598;2022-11-14T00:09:55;26.90;;;14.02;;
51883;SDS011;37915;53.254;6.598;2022-11-14T00:12:20;24.45;;;12.95;;
51883;SDS011;37915;53.254;6.598;2022-11-14T00:14:46;27.02;;;14.38;;
51883;SDS011;37915;53.254;6.598;2022-11-14T00:17:12;23.30;;;13.82;;
51883;SDS011;37915;53.254;6.598;2022-11-14T00:19:38;26.88;;;14.88;;
51883;SDS011;37915;53.254;6.598;2022-11-14T00:22:03;24.23;;;13.75;;
51883;SDS011;37915;53.254;6.598;2022-11-14T00:24:29;24.67;;;13.07;;
51883;SDS011;37915;53.254;6.598;2022-11-14T00:26:55;32.60;;;15.80;;
51883;SDS011;37915;53.254;6.598;2022-11-14T00:29:21;30.10;;;14.63;;
51883;SDS011;37915;53.254;6.598;2022-11-14T00:31:47;24.05;;;12.73;;
51883;SDS011;37915;53.254;6.598;2022-11-14T00:34:12;27.98;;;15.38;;
51883;SDS011;37915;53.254;6.598;2022-11-14T00:36:38;26.17;;;14.57;;
51883;SDS011;37915;53.254;6.598;2022-11-14T00:39:04;27.90;;;14.10;;
51883;SDS011;37915;53.254;6.598;2022-11-14T00:41:30;29.67;;;16.10;;
51883;SDS011;37915;53.254;6.598;2022-11-14T00:43:56;27.40;;;16.15;;
51883;SDS011;37915;53.254;6.598;2022-11-14T00:46:21;28.40;;;14.35;;
51883;SDS011;37915;53.254;6.598;2022-11-14T00:48:47;28.15;;;15.55;;
51883;SDS011;37915;53.254;6.598;2022-11-14T00:51:12;27.33;;;15.30;;
51883;SDS011;37915;53.254;6.598;2022-11-14T00:53:38;37.47;;;18.30;;
51883;SDS011;37915;53.254;6.598;2022-11-14T00:56:04;29.65;;;15.80;;
51883;SDS011;37915;53.254;6.598;2022-11-14T00:58:30;34.70;;;17.50;;
51883;SDS011;37915;53.254;6.598;2022-11-14T01:00:56;32.53;;;16.50;;
51883;SDS011;37915;53.254;6.598;2022-11-14T01:03:22;31.58;;;15.80;;
51883;SDS011;37915;53.254;6.598;2022-11-14T01:05:48;28.58;;;16.65;;
51883;SDS011;37915;53.254;6.598;2022-11-14T01:08:16;34.35;;;19.67;;
51883;SDS011;37915;53.254;6.598;2022-11-14T01:10:44;34.83;;;19.52;;
51883;SDS011;37915;53.254;6.598;2022-11-14T01:13:11;28.05;;;15.63;;
51883;SDS011;37915;53.254;6.598;2022-11-14T01:15:38;32.10;;;18.60;;
51883;SDS011;37915;53.254;6.598;2022-11-14T01:18:05;34.58;;;20.08;;
51883;SDS011;37915;53.254;6.598;2022-11-14T01:20:30;42.05;;;23.48;;
51883;SDS011;37915;53.254;6.598;2022-11-14T01:22:56;36.05;;;21.73;;
51883;SDS011;37915;53.254;6.598;2022-11-14T01:25:22;37.92;;;22.73;;
51883;SDS011;37915;53.254;6.598;2022-11-14T01:27:47;43.92;;;23.77;;
51883;SDS011;37915;53.254;6.598;2022-11-14T01:30:14;39.80;;;23.38;;
51883;SDS011;37915;53.254;6.598;2022-11-14T01:32:40;37.78;;;20.60;;
51883;SDS011;37915;53.254;6.598;2022-11-14T01:35:06;46.30;;;26.05;;
51883;SDS011;37915;53.254;6.598;2022-11-14T01:37:32;43.58;;;24.13;;
51883;SDS011;37915;53.254;6.598;2022-11-14T01:39:57;43.72;;;25.42;;
51883;SDS011;37915;53.254;6.598;2022-11-14T01:42:23;45.55;;;26.92;;
51883;SDS011;37915;53.254;6.598;2022-11-14T01:44:49;43.20;;;24.80;;
51883;SDS011;37915;53.254;6.598;2022-11-14T01:47:17;45.80;;;26.05;;
51883;SDS011;37915;53.254;6.598;2022-11-14T01:49:46;48.42;;;28.35;;
51883;SDS011;37915;53.254;6.598;2022-11-14T01:54:50;45.47;;;24.98;;
51883;SDS011;37915;53.254;6.598;2022-11-14T01:57:23;44.38;;;25.80;;
51883;SDS011;37915;53.254;6.598;2022-11-14T01:59:53;45.45;;;26.75;;
51883;SDS011;37915;53.254;6.598;2022-11-14T02:02:23;47.05;;;26.52;;
51883;SDS011;37915;53.254;6.598;2022-11-14T02:04:54;40.67;;;24.05;;
51883;SDS011;37915;53.254;6.598;2022-11-14T02:07:28;45.60;;;26.10;;
51883;SDS011;37915;53.254;6.598;2022-11-14T02:09:58;42.17;;;25.50;;
51883;SDS011;37915;53.254;6.598;2022-11-14T02:12:27;45.45;;;26.38;;
51883;SDS011;37915;53.254;6.598;2022-11-14T02:14:54;48.15;;;25.90;;
51883;SDS011;37915;53.254;6.598;2022-11-14T02:17:22;43.35;;;26.05;;
51883;SDS011;37915;53.254;6.598;2022-11-14T02:22:24;44.22;;;25.92;;
51883;SDS011;37915;53.254;6.598;2022-11-14T02:24:50;40.55;;;22.95;;
51883;SDS011;37915;53.254;6.598;2022-11-14T02:27:16;45.35;;;26.10;;
51883;SDS011;37915;53.254;6.598;2022-11-14T02:29:41;40.00;;;23.48;;
51883;SDS011;37915;53.254;6.598;2022-11-14T02:32:07;42.28;;;24.73;;
51883;SDS011;37915;53.254;6.598;2022-11-14T02:34:33;44.00;;;25.30;;
51883;SDS011;37915;53.254;6.598;2022-11-14T02:36:58;47.13;;;25.40;;
51883;SDS011;37915;53.254;6.598;2022-11-14T02:39:24;44.92;;;25.05;;
51883;SDS011;37915;53.254;6.598;2022-11-14T02:41:50;47.50;;;25.35;;
51883;SDS011;37915;53.254;6.598;2022-11-14T02:44:16;42.90;;;24.02;;
51883;SDS011;37915;53.254;6.598;2022-11-14T02:46:42;42.78;;;24.38;;
51883;SDS011;37915;53.254;6.598;2022-11-14T02:49:08;45.53;;;25.58;;
51883;SDS011;37915;53.254;6.598;2022-11-14T02:51:33;43.08;;;24.40;;
51883;SDS011;37915;53.254;6.598;2022-11-14T02:53:59;46.17;;;22.38;;
51883;SDS011;37915;53.254;6.598;2022-11-14T02:56:25;43.30;;;24.05;;
51883;SDS011;37915;53.254;6.598;2022-11-14T02:58:50;43.85;;;24.40;;
51883;SDS011;37915;53.254;6.598;2022-11-14T03:01:16;39.92;;;22.90;;
51883;SDS011;37915;53.254;6.598;2022-11-14T03:03:42;41.38;;;24.88;;
51883;SDS011;37915;53.254;6.598;2022-11-14T03:06:07;43.35;;;25.23;;
51883;SDS011;37915;53.254;6.598;2022-11-14T03:08:33;41.35;;;24.20;;
51883;SDS011;37915;53.254;6.598;2022-11-14T03:11:03;40.45;;;23.25;;
51883;SDS011;37915;53.254;6.598;2022-11-14T03:13:30;43.33;;;23.45;;
51883;SDS011;37915;53.254;6.598;2022-11-14T03:15:55;48.70;;;26.17;;
51883;SDS011;37915;53.254;6.598;2022-11-14T03:18:21;39.83;;;20.45;;
51883;SDS011;37915;53.254;6.598;2022-11-14T03:20:47;43.97;;;23.83;;
51883;SDS011;37915;53.254;6.598;2022-11-14T03:23:12;40.17;;;22.38;;
51883;SDS011;37915;53.254;6.598;2022-11-14T03:25:38;39.78;;;22.00;;
51883;SDS011;37915;53.254;6.598;2022-11-14T03:28:04;42.97;;;23.02;;
51883;SDS011;37915;53.254;6.598;2022-11-14T03:30:30;46.50;;;24.10;;
51883;SDS011;37915;53.254;6.598;2022-11-14T03:32:56;43.03;;;24.55;;
51883;SDS011;37915;53.254;6.598;2022-11-14T03:35:22;39.67;;;22.80;;
51883;SDS011;37915;53.254;6.598;2022-11-14T03:37:48;40.55;;;23.83;;
51883;SDS011;37915;53.254;6.598;2022-11-14T03:40:13;46.08;;;24.08;;
51883;SDS011;37915;53.254;6.598;2022-11-14T03:42:39;49.15;;;24.90;;
51883;SDS011;37915;53.254;6.598;2022-11-14T03:45:05;43.17;;;23.27;;
51883;SDS011;37915;53.254;6.598;2022-11-14T03:47:31;42.95;;;24.08;;
51883;SDS011;37915;53.254;6.598;2022-11-14T03:49:57;37.60;;;22.77;;
51883;SDS011;37915;53.254;6.598;2022-11-14T03:52:22;43.35;;;24.00;;
51883;SDS011;37915;53.254;6.598;2022-11-14T03:54:50;43.45;;;24.88;;
51883;SDS011;37915;53.254;6.598;2022-11-14T03:57:16;44.67;;;25.67;;
51883;SDS011;37915;53.254;6.598;2022-11-14T03:59:41;41.25;;;24.73;;
51883;SDS011;37915;53.254;6.598;2022-11-14T04:02:07;41.58;;;24.88;;
51883;SDS011;37915;53.254;6.598;2022-11-14T04:04:33;42.25;;;25.05;;
51883;SDS011;37915;53.254;6.598;2022-11-14T04:06:59;41.75;;;23.60;;
51883;SDS011;37915;53.254;6.598;2022-11-14T04:09:24;43.00;;;24.45;;
51883;SDS011;37915;53.254;6.598;2022-11-14T04:11:50;43.28;;;24.98;;
51883;SDS011;37915;53.254;6.598;2022-11-14T04:14:18;40.92;;;24.00;;
51883;SDS011;37915;53.254;6.598;2022-11-14T04:16:44;37.33;;;22.50;;
51883;SDS011;37915;53.254;6.598;2022-11-14T04:19:09;35.92;;;21.02;;
51883;SDS011;37915;53.254;6.598;2022-11-14T04:21:35;40.08;;;23.52;;
51883;SDS011;37915;53.254;6.598;2022-11-14T04:24:01;38.88;;;23.17;;
51883;SDS011;37915;53.254;6.598;2022-11-14T04:26:27;43.10;;;25.60;;
51883;SDS011;37915;53.254;6.598;2022-11-14T04:28:52;41.45;;;24.58;;
51883;SDS011;37915;53.254;6.598;2022-11-14T04:31:18;41.58;;;24.15;;
51883;SDS011;37915;53.254;6.598;2022-11-14T04:33:43;42.92;;;23.65;;
51883;SDS011;37915;53.254;6.598;2022-11-14T04:36:09;42.20;;;23.77;;
51883;SDS011;37915;53.254;6.598;2022-11-14T04:38:35;43.53;;;25.48;;
51883;SDS011;37915;53.254;6.598;2022-11-14T04:41:00;44.35;;;25.85;;
51883;SDS011;37915;53.254;6.598;2022-11-14T04:43:26;41.60;;;23.13;;
51883;SDS011;37915;53.254;6.598;2022-11-14T04:45:52;44.53;;;25.30;;
51883;SDS011;37915;53.254;6.598;2022-11-14T04:48:17;41.70;;;24.58;;
51883;SDS011;37915;53.254;6.598;2022-11-14T04:50:44;40.90;;;25.02;;
51883;SDS011;37915;53.254;6.598;2022-11-14T04:53:10;48.35;;;27.67;;
51883;SDS011;37915;53.254;6.598;2022-11-14T04:55:36;45.88;;;27.92;;
51883;SDS011;37915;53.254;6.598;2022-11-14T04:58:01;49.50;;;27.08;;
51883;SDS011;37915;53.254;6.598;2022-11-14T05:00:27;40.95;;;24.83;;
51883;SDS011;37915;53.254;6.598;2022-11-14T05:02:53;44.17;;;25.77;;
51883;SDS011;37915;53.254;6.598;2022-11-14T05:05:18;48.88;;;27.08;;
51883;SDS011;37915;53.254;6.598;2022-11-14T05:07:44;39.13;;;23.30;;
51883;SDS011;37915;53.254;6.598;2022-11-14T05:10:10;47.55;;;26.35;;
51883;SDS011;37915;53.254;6.598;2022-11-14T05:12:35;43.45;;;24.42;;
51883;SDS011;37915;53.254;6.598;2022-11-14T05:15:01;39.65;;;23.55;;
51883;SDS011;37915;53.254;6.598;2022-11-14T05:17:27;42.60;;;23.55;;
51883;SDS011;37915;53.254;6.598;2022-11-14T05:19:53;40.17;;;22.60;;
51883;SDS011;37915;53.254;6.598;2022-11-14T05:22:18;42.97;;;26.58;;
51883;SDS011;37915;53.254;6.598;2022-11-14T05:24:44;44.80;;;25.85;;
51883;SDS011;37915;53.254;6.598;2022-11-14T05:27:10;37.80;;;21.13;;
51883;SDS011;37915;53.254;6.598;2022-11-14T05:29:36;46.63;;;24.95;;
51883;SDS011;37915;53.254;6.598;2022-11-14T05:32:01;42.85;;;24.98;;
51883;SDS011;37915;53.254;6.598;2022-11-14T05:34:29;40.58;;;22.70;;
51883;SDS011;37915;53.254;6.598;2022-11-14T05:36:55;40.45;;;24.02;;
51883;SDS011;37915;53.254;6.598;2022-11-14T05:39:24;38.65;;;23.17;;
51883;SDS011;37915;53.254;6.598;2022-11-14T05:41:49;41.53;;;24.92;;
51883;SDS011;37915;53.254;6.598;2022-11-14T05:44:15;40.28;;;22.48;;
51883;SDS011;37915;53.254;6.598;2022-11-14T05:46:41;41.85;;;24.55;;
51883;SDS011;37915;53.254;6.598;2022-11-14T05:49:06;42.47;;;24.00;;
51883;SDS011;37915;53.254;6.598;2022-11-14T05:51:32;43.60;;;23.00;;
51883;SDS011;37915;53.254;6.598;2022-11-14T05:53:58;43.55;;;22.50;;
51883;SDS011;37915;53.254;6.598;2022-11-14T05:56:24;39.13;;;22.67;;
51883;SDS011;37915;53.254;6.598;2022-11-14T05:58:49;43.20;;;23.63;;
51883;SDS011;37915;53.254;6.598;2022-11-14T06:01:18;44.05;;;24.02;;
51883;SDS011;37915;53.254;6.598;2022-11-14T06:03:52;41.10;;;23.08;;
51883;SDS011;37915;53.254;6.598;2022-11-14T06:06:28;41.72;;;23.88;;
51883;SDS011;37915;53.254;6.598;2022-11-14T06:08:53;42.90;;;25.02;;
51883;SDS011;37915;53.254;6.598;2022-11-14T06:11:25;47.70;;;27.30;;
51883;SDS011;37915;53.254;6.598;2022-11-14T06:13:50;41.63;;;23.50;;
51883;SDS011;37915;53.254;6.598;2022-11-14T06:16:17;38.10;;;23.38;;
51883;SDS011;37915;53.254;6.598;2022-11-14T06:18:43;43.88;;;25.02;;
51883;SDS011;37915;53.254;6.598;2022-11-14T06:21:14;41.78;;;23.45;;
51883;SDS011;37915;53.254;6.598;2022-11-14T06:23:41;34.03;;;19.77;;
51883;SDS011;37915;53.254;6.598;2022-11-14T06:26:13;43.25;;;24.17;;
51883;SDS011;37915;53.254;6.598;2022-11-14T06:28:50;42.03;;;24.13;;
51883;SDS011;37915;53.254;6.598;2022-11-14T06:31:18;45.38;;;25.65;;
51883;SDS011;37915;53.254;6.598;2022-11-14T06:33:46;47.17;;;25.67;;
51883;SDS011;37915;53.254;6.598;2022-11-14T06:36:13;44.72;;;22.55;;
51883;SDS011;37915;53.254;6.598;2022-11-14T06:38:39;46.28;;;24.90;;
51883;SDS011;37915;53.254;6.598;2022-11-14T06:41:16;43.75;;;23.73;;
51883;SDS011;37915;53.254;6.598;2022-11-14T06:43:45;44.70;;;24.17;;
51883;SDS011;37915;53.254;6.598;2022-11-14T06:46:19;44.30;;;22.23;;
51883;SDS011;37915;53.254;6.598;2022-11-14T06:48:46;41.67;;;24.23;;
51883;SDS011;37915;53.254;6.598;2022-11-14T06:51:14;40.92;;;23.20;;
51883;SDS011;37915;53.254;6.598;2022-11-14T06:53:43;46.03;;;25.58;;
51883;SDS011;37915;53.254;6.598;2022-11-14T06:56:12;47.33;;;25.48;;
51883;SDS011;37915;53.254;6.598;2022-11-14T06:58:44;39.42;;;22.65;;
51883;SDS011;37915;53.254;6.598;2022-11-14T07:03:48;47.40;;;24.65;;
51883;SDS011;37915;53.254;6.598;2022-11-14T07:06:18;43.15;;;24.60;;
51883;SDS011;37915;53.254;6.598;2022-11-14T07:08:49;45.67;;;25.77;;
51883;SDS011;37915;53.254;6.598;2022-11-14T07:11:19;47.10;;;23.52;;
51883;SDS011;37915;53.254;6.598;2022-11-14T07:13:50;41.58;;;23.98;;
51883;SDS011;37915;53.254;6.598;2022-11-14T07:16:17;43.78;;;25.13;;
51883;SDS011;37915;53.254;6.598;2022-11-14T07:18:50;46.08;;;24.40;;
51883;SDS011;37915;53.254;6.598;2022-11-14T07:21:17;43.35;;;22.02;;
51883;SDS011;37915;53.254;6.598;2022-11-14T07:23:42;46.97;;;24.92;;
51883;SDS011;37915;53.254;6.598;2022-11-14T07:26:09;46.25;;;23.42;;
51883;SDS011;37915;53.254;6.598;2022-11-14T07:28:38;50.10;;;25.83;;
51883;SDS011;37915;53.254;6.598;2022-11-14T07:31:06;40.63;;;22.67;;
51883;SDS011;37915;53.254;6.598;2022-11-14T07:33:33;46.10;;;24.58;;
51883;SDS011;37915;53.254;6.598;2022-11-14T07:36:07;45.05;;;23.60;;
51883;SDS011;37915;53.254;6.598;2022-11-14T07:38:37;43.63;;;22.42;;
51883;SDS011;37915;53.254;6.598;2022-11-14T07:43:36;47.33;;;24.70;;
51883;SDS011;37915;53.254;6.598;2022-11-14T07:46:03;53.95;;;25.63;;
51883;SDS011;37915;53.254;6.598;2022-11-14T07:48:42;46.00;;;25.48;;
51883;SDS011;37915;53.254;6.598;2022-11-14T07:51:13;47.78;;;25.75;;
51883;SDS011;37915;53.254;6.598;2022-11-14T07:53:43;47.30;;;26.85;;
51883;SDS011;37915;53.254;6.598;2022-11-14T07:56:09;47.05;;;23.80;;
51883;SDS011;37915;53.254;6.598;2022-11-14T07:58:35;48.22;;;26.63;;
51883;SDS011;37915;53.254;6.598;2022-11-14T08:01:06;50.03;;;26.83;;
51883;SDS011;37915;53.254;6.598;2022-11-14T08:03:35;45.90;;;24.05;;
51883;SDS011;37915;53.254;6.598;2022-11-14T08:06:02;41.08;;;23.67;;
51883;SDS011;37915;53.254;6.598;2022-11-14T08:08:31;45.80;;;24.95;;
51883;SDS011;37915;53.254;6.598;2022-11-14T08:10:57;46.70;;;24.60;;
51883;SDS011;37915;53.254;6.598;2022-11-14T08:13:30;47.53;;;24.15;;
51883;SDS011;37915;53.254;6.598;2022-11-14T08:15:56;53.38;;;25.67;;
51883;SDS011;37915;53.254;6.598;2022-11-14T08:18:31;43.00;;;23.23;;
51883;SDS011;37915;53.254;6.598;2022-11-14T08:20:59;45.72;;;24.20;;
51883;SDS011;37915;53.254;6.598;2022-11-14T08:23:31;48.92;;;24.83;;
51883;SDS011;37915;53.254;6.598;2022-11-14T08:25:57;48.70;;;26.75;;
51883;SDS011;37915;53.254;6.598;2022-11-14T08:28:26;52.58;;;26.38;;
51883;SDS011;37915;53.254;6.598;2022-11-14T08:31:02;48.55;;;24.85;;
51883;SDS011;37915;53.254;6.598;2022-11-14T08:33:38;46.05;;;24.13;;
51883;SDS011;37915;53.254;6.598;2022-11-14T08:36:08;47.85;;;25.60;;
51883;SDS011;37915;53.254;6.598;2022-11-14T08:38:36;45.83;;;24.23;;
51883;SDS011;37915;53.254;6.598;2022-11-14T08:41:04;45.08;;;24.02;;
51883;SDS011;37915;53.254;6.598;2022-11-14T08:43:36;42.78;;;24.73;;
51883;SDS011;37915;53.254;6.598;2022-11-14T08:46:04;45.83;;;24.23;;
51883;SDS011;37915;53.254;6.598;2022-11-14T08:48:50;42.08;;;23.48;;
51883;SDS011;37915;53.254;6.598;2022-11-14T08:51:31;49.00;;;25.50;;
51883;SDS011;37915;53.254;6.598;2022-11-14T08:54:24;40.40;;;23.25;;
51883;SDS011;37915;53.254;6.598;2022-11-14T08:56:52;48.80;;;27.13;;
51883;SDS011;37915;53.254;6.598;2022-11-14T08:59:31;46.88;;;24.63;;
51883;SDS011;37915;53.254;6.598;2022-11-14T09:02:02;41.05;;;24.60;;
51883;SDS011;37915;53.254;6.598;2022-11-14T09:04:28;42.50;;;23.35;;
51883;SDS011;37915;53.254;6.598;2022-11-14T09:06:59;46.97;;;26.48;;
51883;SDS011;37915;53.254;6.598;2022-11-14T09:09:31;48.47;;;25.35;;
51883;SDS011;37915;53.254;6.598;2022-11-14T09:11:56;47.53;;;25.15;;
51883;SDS011;37915;53.254;6.598;2022-11-14T09:14:22;44.08;;;24.88;;
51883;SDS011;37915;53.254;6.598;2022-11-14T09:16:50;49.20;;;26.15;;
51883;SDS011;37915;53.254;6.598;2022-11-14T09:19:19;42.42;;;22.90;;
51883;SDS011;37915;53.254;6.598;2022-11-14T09:21:48;44.78;;;24.85;;
51883;SDS011;37915;53.254;6.598;2022-11-14T09:24:21;43.90;;;24.83;;
51883;SDS011;37915;53.254;6.598;2022-11-14T09:26:54;49.50;;;24.42;;
51883;SDS011;37915;53.254;6.598;2022-11-14T09:29:25;47.55;;;24.83;;
51883;SDS011;37915;53.254;6.598;2022-11-14T09:31:51;46.75;;;24.58;;
51883;SDS011;37915;53.254;6.598;2022-11-14T09:37:27;43.97;;;24.73;;
51883;SDS011;37915;53.254;6.598;2022-11-14T09:39:55;46.38;;;25.67;;
51883;SDS011;37915;53.254;6.598;2022-11-14T09:45:15;45.03;;;25.58;;
51883;SDS011;37915;53.254;6.598;2022-11-14T09:47:45;43.47;;;24.73;;
51883;SDS011;37915;53.254;6.598;2022-11-14T09:50:35;36.72;;;21.42;;
51883;SDS011;37915;53.254;6.598;2022-11-14T09:53:09;42.53;;;23.80;;
51883;SDS011;37915;53.254;6.598;2022-11-14T09:55:47;39.13;;;23.80;;
51883;SDS011;37915;53.254;6.598;2022-11-14T09:58:15;43.35;;;25.88;;
51883;SDS011;37915;53.254;6.598;2022-11-14T10:00:53;39.08;;;22.30;;
51883;SDS011;37915;53.254;6.598;2022-11-14T10:14:55;37.50;;;22.88;;
51883;SDS011;37915;53.254;6.598;2022-11-14T10:25:50;43.20;;;25.33;;
51883;SDS011;37915;53.254;6.598;2022-11-14T10:40:37;39.88;;;22.38;;
51883;SDS011;37915;53.254;6.598;2022-11-14T10:49:14;38.53;;;22.67;;
51883;SDS011;37915;53.254;6.598;2022-11-14T10:51:51;36.00;;;22.88;;
51883;SDS011;37915;53.254;6.598;2022-11-14T10:56:53;38.10;;;23.77;;
51883;SDS011;37915;53.254;6.598;2022-11-14T10:59:20;38.88;;;22.80;;
51883;SDS011;37915;53.254;6.598;2022-11-14T11:04:32;41.30;;;24.20;;
51883;SDS011;37915;53.254;6.598;2022-11-14T11:09:27;38.33;;;21.80;;
51883;SDS011;37915;53.254;6.598;2022-11-14T11:12:21;36.15;;;20.55;;
51883;SDS011;37915;53.254;6.598;2022-11-14T11:14:49;37.13;;;22.10;;
51883;SDS011;37915;53.254;6.598;2022-11-14T11:18:02;38.10;;;23.35;;
51883;SDS011;37915;53.254;6.598;2022-11-14T11:20:31;41.55;;;22.73;;
51883;SDS011;37915;53.254;6.598;2022-11-14T11:25:37;41.42;;;23.88;;
51883;SDS011;37915;53.254;6.598;2022-11-14T11:30:36;41.17;;;24.40;;
51883;SDS011;37915;53.254;6.598;2022-11-14T11:35:51;41.47;;;24.52;;
51883;SDS011;37915;53.254;6.598;2022-11-14T11:38:24;42.75;;;25.20;;
51883;SDS011;37915;53.254;6.598;2022-11-14T11:40:53;41.28;;;24.48;;
51883;SDS011;37915;53.254;6.598;2022-11-14T11:45:51;42.30;;;23.90;;
51883;SDS011;37915;53.254;6.598;2022-11-14T11:48:21;40.80;;;24.98;;
51883;SDS011;37915;53.254;6.598;2022-11-14T11:51:08;39.40;;;23.23;;
51883;SDS011;37915;53.254;6.598;2022-11-14T11:53:47;42.83;;;24.63;;
51883;SDS011;37915;53.254;6.598;2022-11-14T11:56:48;36.90;;;22.88;;
51883;SDS011;37915;53.254;6.598;2022-11-14T12:02:02;37.58;;;23.55;;
51883;SDS011;37915;53.254;6.598;2022-11-14T12:04:54;36.20;;;21.58;;
51883;SDS011;37915;53.254;6.598;2022-11-14T12:10:57;36.58;;;20.42;;
51883;SDS011;37915;53.254;6.598;2022-11-14T12:16:48;37.60;;;21.65;;
51883;SDS011;37915;53.254;6.598;2022-11-14T12:22:10;43.47;;;23.95;;
51883;SDS011;37915;53.254;6.598;2022-11-14T12:28:35;38.20;;;23.35;;
51883;SDS011;37915;53.254;6.598;2022-11-14T12:34:03;38.50;;;21.25;;
51883;SDS011;37915;53.254;6.598;2022-11-14T12:36:40;39.63;;;24.77;;
51883;SDS011;37915;53.254;6.598;2022-11-14T12:39:18;41.00;;;24.23;;
51883;SDS011;37915;53.254;6.598;2022-11-14T12:42:08;40.72;;;25.20;;
51883;SDS011;37915;53.254;6.598;2022-11-14T12:44:42;42.22;;;23.77;;
51883;SDS011;37915;53.254;6.598;2022-11-14T12:47:19;35.70;;;22.08;;
51883;SDS011;37915;53.254;6.598;2022-11-14T12:49:56;40.17;;;23.95;;
51883;SDS011;37915;53.254;6.598;2022-11-14T12:58:08;41.70;;;24.77;;
51883;SDS011;37915;53.254;6.598;2022-11-14T13:01:05;38.33;;;21.83;;
51883;SDS011;37915;53.254;6.598;2022-11-14T13:06:16;35.83;;;22.48;;
51883;SDS011;37915;53.254;6.598;2022-11-14T13:14:14;38.50;;;22.52;;
51883;SDS011;37915;53.254;6.598;2022-11-14T13:17:08;33.15;;;20.73;;
51883;SDS011;37915;53.254;6.598;2022-11-14T13:19:53;35.40;;;21.83;;
51883;SDS011;37915;53.254;6.598;2022-11-14T13:22:38;32.13;;;19.83;;
51883;SDS011;37915;53.254;6.598;2022-11-14T13:25:18;34.53;;;20.27;;
51883;SDS011;37915;53.254;6.598;2022-11-14T13:27:46;30.05;;;18.65;;
51883;SDS011;37915;53.254;6.598;2022-11-14T13:30:12;35.65;;;21.33;;
51883;SDS011;37915;53.254;6.598;2022-11-14T13:35:51;34.25;;;22.85;;
51883;SDS011;37915;53.254;6.598;2022-11-14T13:49:22;31.83;;;18.63;;
51883;SDS011;37915;53.254;6.598;2022-11-14T13:52:03;34.55;;;20.70;;
51883;SDS011;37915;53.254;6.598;2022-11-14T13:54:29;32.05;;;20.52;;
51883;SDS011;37915;53.254;6.598;2022-11-14T13:57:15;31.88;;;21.27;;
51883;SDS011;37915;53.254;6.598;2022-11-14T14:02:41;34.88;;;20.20;;
51883;SDS011;37915;53.254;6.598;2022-11-14T14:06:26;37.45;;;23.40;;
51883;SDS011;37915;53.254;6.598;2022-11-14T14:12:00;27.70;;;17.63;;
51883;SDS011;37915;53.254;6.598;2022-11-14T14:17:49;30.20;;;18.47;;
51883;SDS011;37915;53.254;6.598;2022-11-14T14:20:58;27.65;;;17.30;;
51883;SDS011;37915;53.254;6.598;2022-11-14T14:29:14;31.25;;;18.52;;
51883;SDS011;37915;53.254;6.598;2022-11-14T14:31:52;29.58;;;18.50;;
51883;SDS011;37915;53.254;6.598;2022-11-14T14:34:37;29.35;;;18.50;;
51883;SDS011;37915;53.254;6.598;2022-11-14T14:40:51;28.33;;;18.27;;
51883;SDS011;37915;53.254;6.598;2022-11-14T14:43:34;30.17;;;18.23;;
51883;SDS011;37915;53.254;6.598;2022-11-14T14:46:03;34.88;;;19.52;;
51883;SDS011;37915;53.254;6.598;2022-11-14T14:48:35;37.92;;;19.60;;
51883;SDS011;37915;53.254;6.598;2022-11-14T14:51:34;29.55;;;18.42;;
51883;SDS011;37915;53.254;6.598;2022-11-14T14:54:04;26.20;;;16.52;;
51883;SDS011;37915;53.254;6.598;2022-11-14T14:56:54;29.38;;;18.58;;
51883;SDS011;37915;53.254;6.598;2022-11-14T14:59:27;30.85;;;18.45;;
51883;SDS011;37915;53.254;6.598;2022-11-14T15:01:58;30.25;;;18.20;;
51883;SDS011;37915;53.254;6.598;2022-11-14T15:04:40;28.00;;;17.13;;
51883;SDS011;37915;53.254;6.598;2022-11-14T15:10:17;29.42;;;17.92;;
51883;SDS011;37915;53.254;6.598;2022-11-14T15:12:49;31.33;;;18.52;;
51883;SDS011;37915;53.254;6.598;2022-11-14T15:15:35;30.92;;;17.80;;
51883;SDS011;37915;53.254;6.598;2022-11-14T15:18:04;29.52;;;17.40;;
51883;SDS011;37915;53.254;6.598;2022-11-14T15:21:04;28.48;;;18.25;;
51883;SDS011;37915;53.254;6.598;2022-11-14T15:23:59;28.67;;;17.15;;
51883;SDS011;37915;53.254;6.598;2022-11-14T15:27:16;28.40;;;16.88;;
51883;SDS011;37915;53.254;6.598;2022-11-14T15:29:58;29.55;;;18.23;;
51883;SDS011;37915;53.254;6.598;2022-11-14T15:32:32;34.30;;;18.65;;
51883;SDS011;37915;53.254;6.598;2022-11-14T15:40:39;33.75;;;17.92;;
51883;SDS011;37915;53.254;6.598;2022-11-14T15:52:32;36.78;;;20.55;;
51883;SDS011;37915;53.254;6.598;2022-11-14T16:04:52;32.08;;;19.65;;
51883;SDS011;37915;53.254;6.598;2022-11-14T16:07:19;33.90;;;20.02;;
51883;SDS011;37915;53.254;6.598;2022-11-14T16:09:48;33.30;;;19.20;;
51883;SDS011;37915;53.254;6.598;2022-11-14T16:12:27;37.03;;;22.27;;
51883;SDS011;37915;53.254;6.598;2022-11-14T16:15:07;33.13;;;20.35;;
51883;SDS011;37915;53.254;6.598;2022-11-14T16:17:44;32.75;;;19.73;;
51883;SDS011;37915;53.254;6.598;2022-11-14T16:20:22;32.72;;;19.10;;
51883;SDS011;37915;53.254;6.598;2022-11-14T16:22:57;35.67;;;20.33;;
51883;SDS011;37915;53.254;6.598;2022-11-14T16:25:26;33.97;;;19.40;;
51883;SDS011;37915;53.254;6.598;2022-11-14T16:27:59;33.72;;;20.63;;
51883;SDS011;37915;53.254;6.598;2022-11-14T16:30:49;33.20;;;19.50;;
51883;SDS011;37915;53.254;6.598;2022-11-14T16:33:35;31.83;;;19.17;;
51883;SDS011;37915;53.254;6.598;2022-11-14T16:36:08;34.83;;;20.52;;
51883;SDS011;37915;53.254;6.598;2022-11-14T16:38:47;33.42;;;20.15;;
51883;SDS011;37915;53.254;6.598;2022-11-14T16:41:35;32.28;;;19.73;;
51883;SDS011;37915;53.254;6.598;2022-11-14T16:44:03;34.22;;;19.67;;
51883;SDS011;37915;53.254;6.598;2022-11-14T16:46:31;29.40;;;18.17;;
51883;SDS011;37915;53.254;6.598;2022-11-14T16:49:00;35.55;;;19.77;;
51883;SDS011;37915;53.254;6.598;2022-11-14T16:51:47;32.13;;;19.70;;
51883;SDS011;37915;53.254;6.598;2022-11-14T16:54:37;30.55;;;17.90;;
51883;SDS011;37915;53.254;6.598;2022-11-14T16:57:03;32.67;;;18.92;;
51883;SDS011;37915;53.254;6.598;2022-11-14T16:59:28;30.30;;;18.83;;
51883;SDS011;37915;53.254;6.598;2022-11-14T17:01:54;32.00;;;19.25;;
51883;SDS011;37915;53.254;6.598;2022-11-14T17:04:20;36.65;;;20.25;;
51883;SDS011;37915;53.254;6.598;2022-11-14T17:06:46;29.38;;;18.55;;
51883;SDS011;37915;53.254;6.598;2022-11-14T17:09:11;29.40;;;18.98;;
51883;SDS011;37915;53.254;6.598;2022-11-14T17:11:38;27.35;;;17.40;;
51883;SDS011;37915;53.254;6.598;2022-11-14T17:14:11;33.65;;;18.63;;
51883;SDS011;37915;53.254;6.598;2022-11-14T17:16:40;28.55;;;17.25;;
51883;SDS011;37915;53.254;6.598;2022-11-14T17:19:08;33.72;;;17.70;;
51883;SDS011;37915;53.254;6.598;2022-11-14T17:21:37;31.08;;;19.25;;
51883;SDS011;37915;53.254;6.598;2022-11-14T17:24:23;27.60;;;17.23;;
51883;SDS011;37915;53.254;6.598;2022-11-14T17:30:07;30.33;;;17.98;;